Butler, South Dakota
Current Conditions -  °F | °C
As of 11:11 AM on Sunday 21 Dec 2014 (Local Time) from KABR Reporting Station
Haze Haze  
Wind Chill: -6°   Ceiling: 200
Heat Index: -1°   Visibility: 1.5mi
Dew Point: -1°   Wind: 13mph
Humidity: 96%   Direction: 180°S
Pressure: 29.64"   Gusts: NA
Location:  45.2657°N, 97.7493°W
Report Text: KABR 211711Z AUTO 18011KT 1 1/2SM BR OVC002 M01/M01 A2964 RMK AO2 T10061011
Loading
Personal Weather Stations






























Interactive Weather Map New forecast layout! Learn more

10-Day Weather Forecast

Advertisements
Track Severe Weather on mobile